Kezdőlap
METAR-TAF:

METAR-TAF

Repülőterek :

Arad, Románia

földrajzi szélesség: 46-12N, földrajzi hosszúság: 021-24E, magasság: 117 m

Jelenlegi meteorológiai megfigyelések

A jelentés 19 perccel ezelõtt készült, 21:00 UTC
Déli szél 2 kt, délkeleti és dél-délnyugati között változik
Hőmérséklet 18°C
Páratartalom 88%
Légköri nyomás 1020 hPa
Látótávolság 10 km, vagy több

METAR: LRAR 272100Z AUTO 18002KT 140V210 9999 R09////// R27/P2000 NSC 18/16 Q1020

Idő: 00:19 (21:19 UTC)


TAF: hiányzik

Meteorológiai megfigyelések és előrejelzések több, mint 4000 repülőtéren (METAR és TAF jelentéseket).

A térképen piros és sárga pontok jelzik az elérhető meteorológiai állomásokat.

Mozgassa az egeret a pont fölött, hogy megjelenjen az állomás neve.

Azután kattintson az időjárási megfigyelések és előrejelzések megtekintéséhez.

A térkép megváltoztatása: kattintson a fekete keresztel jelölt zöld gombra ráközelítéshez, a vonallal jelölt zöld gombra távolításhoz, vagy a zöld nyilakra a szomszédos térképek eléréséhez.


METAR-TAF: